Time;durP1;ratioP1;P1;durP2;ratioP2;P2;SDS_P1;SDS_P2;PMS_P1;PMS_P2;Temp;Humidity;BMP_temperature;BMP_pressure;BME280_temperature;BME280_humidity;BME280_pressure;Samples;Min_cycle;Max_cycle;Signal;HPM_P1;HPM_P2
2021/06/20 00:01:57;;;;;;;13.38;2.25;;;;;;;;;;5030800;28;20094;-68
2021/06/20 00:04:24;;;;;;;14.23;1.73;;;;;;;;;;5030432;28;20090;-69
2021/06/20 00:06:52;;;;;;;6.40;1.35;;;;;;;;;;5030315;28;20389;-68
2021/06/20 00:09:20;;;;;;;9.13;1.23;;;;;;;;;;5030509;28;20382;-68
2021/06/20 00:11:49;;;;;;;12.10;1.83;;;;;;;;;;5030985;28;20398;-67
2021/06/20 00:14:16;;;;;;;11.15;1.85;;;;;;;;;;5030313;28;20106;-67
2021/06/20 00:16:43;;;;;;;7.80;1.13;;;;;;;;;;5030798;28;20025;-67
2021/06/20 00:19:10;;;;;;;9.52;1.08;;;;;;;;;;5030332;28;20021;-68
2021/06/20 00:21:38;;;;;;;10.98;1.45;;;;;;;;;;5006379;28;20482;-67
2021/06/20 00:24:05;;;;;;;10.73;1.67;;;;;;;;;;5030934;28;20026;-67
2021/06/20 00:26:33;;;;;;;10.55;1.60;;;;;;;;;;5030671;28;20441;-67
2021/06/20 00:29:00;;;;;;;8.40;1.30;;;;;;;;;;5031311;28;20426;-67
2021/06/20 00:31:27;;;;;;;10.93;2.22;;;;;;;;;;5012752;28;20490;-67
2021/06/20 00:33:54;;;;;;;5.18;1.13;;;;;;;;;;5030581;28;20046;-67
2021/06/20 00:36:21;;;;;;;14.80;1.65;;;;;;;;;;5027466;28;20552;-67
2021/06/20 00:38:48;;;;;;;10.48;1.60;;;;;;;;;;5030269;28;20033;-66
2021/06/20 00:41:15;;;;;;;9.80;1.35;;;;;;;;;;5008216;28;20516;-66
2021/06/20 00:43:43;;;;;;;7.25;1.60;;;;;;;;;;5030756;28;20052;-66
2021/06/20 00:46:10;;;;;;;12.48;2.08;;;;;;;;;;5031178;28;20091;-65
2021/06/20 00:48:37;;;;;;;11.93;1.73;;;;;;;;;;5030685;28;20021;-66
2021/06/20 00:51:05;;;;;;;9.13;1.42;;;;;;;;;;5031367;28;20037;-66
2021/06/20 00:53:32;;;;;;;15.73;1.40;;;;;;;;;;5032809;28;20032;-67
2021/06/20 00:55:59;;;;;;;8.15;1.80;;;;;;;;;;5033890;28;20025;-65
2021/06/20 00:58:27;;;;;;;8.50;1.30;;;;;;;;;;5033878;28;20017;-66
2021/06/20 01:00:54;;;;;;;9.30;1.60;;;;;;;;;;5031171;28;20029;-68
2021/06/20 01:03:21;;;;;;;26.23;9.77;;;;;;;;;;5032843;28;20021;-66
2021/06/20 01:05:49;;;;;;;11.15;1.67;;;;;;;;;;5034530;28;20057;-67
2021/06/20 01:08:16;;;;;;;10.13;1.55;;;;;;;;;;5032347;28;20021;-67
2021/06/20 01:10:43;;;;;;;12.50;1.95;;;;;;;;;;5032616;28;20033;-67
2021/06/20 01:13:12;;;;;;;11.95;2.03;;;;;;;;;;5034762;28;20028;-67
2021/06/20 01:15:40;;;;;;;13.00;2.58;;;;;;;;;;5034642;28;20025;-68
2021/06/20 01:18:08;;;;;;;14.88;1.92;;;;;;;;;;5033402;28;20022;-68
2021/06/20 01:20:35;;;;;;;20.45;2.53;;;;;;;;;;5033125;28;20107;-67
2021/06/20 01:23:02;;;;;;;13.57;1.95;;;;;;;;;;5033802;28;20029;-67
2021/06/20 01:25:29;;;;;;;18.40;2.85;;;;;;;;;;5032911;28;20017;-67
2021/06/20 01:27:59;;;;;;;12.98;2.20;;;;;;;;;;5034390;28;20025;-67
2021/06/20 01:30:31;;;;;;;14.05;1.95;;;;;;;;;;5033110;28;20029;-66
2021/06/20 01:32:59;;;;;;;14.15;2.85;;;;;;;;;;5033232;28;20049;-67
2021/06/20 01:35:27;;;;;;;15.63;2.63;;;;;;;;;;5032478;28;20523;-67
2021/06/20 01:37:54;;;;;;;11.45;1.80;;;;;;;;;;5033607;28;20030;-66
2021/06/20 01:40:23;;;;;;;12.93;1.25;;;;;;;;;;5033982;28;20100;-67
2021/06/20 01:42:50;;;;;;;12.65;2.00;;;;;;;;;;5031968;28;20021;-66
2021/06/20 01:45:18;;;;;;;17.27;2.28;;;;;;;;;;5033154;28;20489;-66
2021/06/20 01:47:46;;;;;;;15.43;1.45;;;;;;;;;;5028457;28;20026;-66
2021/06/20 01:50:14;;;;;;;10.73;1.77;;;;;;;;;;5032833;28;20017;-67
2021/06/20 01:52:41;;;;;;;11.38;1.23;;;;;;;;;;5033105;28;20034;-68
2021/06/20 01:55:12;;;;;;;9.45;1.27;;;;;;;;;;5030580;28;20029;-66
2021/06/20 01:57:41;;;;;;;11.02;1.92;;;;;;;;;;5031899;28;20034;-66
2021/06/20 02:00:10;;;;;;;12.55;1.67;;;;;;;;;;5015327;28;20045;-66
2021/06/20 02:02:38;;;;;;;6.47;2.45;;;;;;;;;;5032037;28;20029;-66
2021/06/20 02:05:05;;;;;;;12.55;2.17;;;;;;;;;;5032527;28;20063;-66
2021/06/20 02:07:35;;;;;;;12.45;1.73;;;;;;;;;;5014829;28;20090;-69
2021/06/20 02:10:03;;;;;;;8.77;1.45;;;;;;;;;;5033141;28;20532;-67
2021/06/20 02:12:30;;;;;;;10.57;2.05;;;;;;;;;;5033280;28;20036;-68
2021/06/20 02:14:57;;;;;;;9.32;1.63;;;;;;;;;;5032707;28;20018;-67
2021/06/20 02:17:31;;;;;;;8.68;1.88;;;;;;;;;;5032554;28;20025;-67
2021/06/20 02:19:58;;;;;;;;;;;;;;;;;;5033255;28;20155;-67
2021/06/20 02:22:26;;;;;;;10.57;2.00;;;;;;;;;;5033565;28;19928;-69
2021/06/20 02:24:53;;;;;;;11.30;2.05;;;;;;;;;;5033040;28;20782;-66
2021/06/20 02:27:21;;;;;;;11.90;2.20;;;;;;;;;;5032532;28;20537;-68
2021/06/20 02:29:50;;;;;;;10.77;2.38;;;;;;;;;;5032562;28;20387;-68
2021/06/20 02:32:17;;;;;;;11.30;2.20;;;;;;;;;;5014701;28;20413;-66
2021/06/20 02:34:45;;;;;;;10.48;1.77;;;;;;;;;;5032745;28;20044;-66
2021/06/20 02:37:13;;;;;;;9.63;2.47;;;;;;;;;;5031377;28;20444;-67
2021/06/20 02:39:40;;;;;;;10.48;1.67;;;;;;;;;;5033231;28;20112;-67
2021/06/20 02:42:08;;;;;;;9.32;1.67;;;;;;;;;;5033032;28;20429;-67
2021/06/20 02:44:36;;;;;;;9.52;2.00;;;;;;;;;;5028253;28;20441;-67
2021/06/20 02:47:03;;;;;;;9.57;1.83;;;;;;;;;;5031192;28;20076;-68
2021/06/20 02:49:31;;;;;;;10.63;2.03;;;;;;;;;;5031872;28;20029;-67
2021/06/20 02:51:59;;;;;;;14.05;1.98;;;;;;;;;;5031980;28;20033;-65
2021/06/20 02:54:26;;;;;;;8.57;1.33;;;;;;;;;;5031936;28;20059;-68
2021/06/20 02:56:53;;;;;;;8.23;1.42;;;;;;;;;;5030763;28;20029;-66
2021/06/20 02:59:24;;;;;;;9.18;1.88;;;;;;;;;;5023415;28;20022;-66
2021/06/20 03:01:51;;;;;;;9.20;1.52;;;;;;;;;;5031669;28;20029;-67
2021/06/20 03:04:18;;;;;;;5.32;0.90;;;;;;;;;;5031916;28;20032;-66
2021/06/20 03:06:45;;;;;;;4.35;0.70;;;;;;;;;;5030985;28;20033;-67
2021/06/20 03:09:12;;;;;;;8.35;1.42;;;;;;;;;;5031582;28;20083;-67
2021/06/20 03:11:43;;;;;;;10.07;1.42;;;;;;;;;;5032545;28;20071;-67
2021/06/20 03:14:11;;;;;;;7.18;1.10;;;;;;;;;;5031336;28;20044;-66
2021/06/20 03:16:38;;;;;;;7.78;1.58;;;;;;;;;;5029906;28;20018;-66
2021/06/20 03:19:05;;;;;;;6.45;1.40;;;;;;;;;;5030523;28;20037;-65
2021/06/20 03:21:33;;;;;;;6.25;1.20;;;;;;;;;;5030354;28;20083;-66
2021/06/20 03:24:00;;;;;;;5.28;1.13;;;;;;;;;;5012857;28;20488;-67
2021/06/20 03:26:28;;;;;;;7.88;1.75;;;;;;;;;;5029573;28;20025;-66
2021/06/20 03:28:56;;;;;;;8.57;2.10;;;;;;;;;;5028968;28;20052;-66
2021/06/20 03:31:23;;;;;;;9.73;1.13;;;;;;;;;;4997306;28;20029;-67
2021/06/20 03:33:50;;;;;;;11.80;2.30;;;;;;;;;;5029935;28;20098;-68
2021/06/20 03:36:17;;;;;;;10.75;2.72;;;;;;;;;;5030473;28;20030;-68
2021/06/20 03:38:45;;;;;;;10.15;1.67;;;;;;;;;;5032232;28;20079;-67
2021/06/20 03:41:12;;;;;;;9.65;1.65;;;;;;;;;;5030962;28;20124;-67
2021/06/20 03:43:42;;;;;;;9.50;1.40;;;;;;;;;;5030374;28;20026;-68
2021/06/20 03:46:10;;;;;;;10.38;1.63;;;;;;;;;;5030813;28;20025;-68
2021/06/20 03:48:40;;;;;;;11.70;1.95;;;;;;;;;;5031392;28;20025;-68
2021/06/20 03:51:08;;;;;;;6.70;1.23;;;;;;;;;;5029360;28;20033;-67
2021/06/20 03:53:35;;;;;;;6.22;0.90;;;;;;;;;;5031396;28;20097;-67
2021/06/20 03:56:03;;;;;;;7.85;1.35;;;;;;;;;;5013474;28;20125;-68
2021/06/20 03:58:31;;;;;;;7.18;0.80;;;;;;;;;;5030477;28;20018;-67
2021/06/20 04:00:58;;;;;;;9.60;1.60;;;;;;;;;;5031087;28;20409;-68
2021/06/20 04:03:25;;;;;;;8.80;1.27;;;;;;;;;;5030950;28;20026;-68
2021/06/20 04:05:52;;;;;;;9.82;1.33;;;;;;;;;;5013337;28;20117;-68
2021/06/20 04:08:19;;;;;;;8.63;1.73;;;;;;;;;;5030514;28;20036;-68
2021/06/20 04:10:46;;;;;;;9.02;1.30;;;;;;;;;;5030206;28;20104;-68
2021/06/20 04:13:14;;;;;;;10.13;1.90;;;;;;;;;;5031183;28;20021;-68
2021/06/20 04:15:41;;;;;;;11.77;1.42;;;;;;;;;;5031294;28;20026;-68
2021/06/20 04:18:09;;;;;;;10.65;1.70;;;;;;;;;;5030803;28;20029;-67
2021/06/20 04:20:36;;;;;;;7.95;1.45;;;;;;;;;;5030854;28;20386;-68
2021/06/20 04:23:03;;;;;;;8.48;0.90;;;;;;;;;;5030334;28;20448;-66
2021/06/20 04:25:30;;;;;;;8.57;1.95;;;;;;;;;;5029783;28;20030;-67
2021/06/20 04:27:58;;;;;;;7.78;2.00;;;;;;;;;;5031341;28;20021;-67
2021/06/20 04:30:26;;;;;;;7.30;1.15;;;;;;;;;;5033045;28;20035;-69
2021/06/20 04:32:53;;;;;;;7.47;1.70;;;;;;;;;;5033649;28;20471;-68
2021/06/20 04:35:21;;;;;;;8.10;0.80;;;;;;;;;;5033710;28;20482;-68
2021/06/20 04:37:49;;;;;;;7.97;1.02;;;;;;;;;;5031405;28;20021;-68
2021/06/20 04:40:22;;;;;;;5.22;1.15;;;;;;;;;;5034733;28;20026;-68
2021/06/20 04:43:05;;;;;;;5.53;1.10;;;;;;;;;;5016707;28;20038;-67
2021/06/20 04:45:32;;;;;;;7.82;1.58;;;;;;;;;;5033586;28;20017;-68
2021/06/20 04:47:59;;;;;;;6.07;0.80;;;;;;;;;;5032575;28;20021;-68
2021/06/20 04:50:26;;;;;;;6.20;1.52;;;;;;;;;;5034142;28;20451;-65
2021/06/20 04:52:53;;;;;;;5.72;1.02;;;;;;;;;;5034275;28;20033;-66
2021/06/20 04:55:20;;;;;;;5.05;1.15;;;;;;;;;;5033504;28;20025;-67
2021/06/20 04:57:48;;;;;;;6.90;1.27;;;;;;;;;;5034774;28;20486;-67
2021/06/20 05:00:15;;;;;;;9.05;1.63;;;;;;;;;;5034046;28;20034;-67
2021/06/20 05:02:43;;;;;;;8.68;1.10;;;;;;;;;;5034199;28;20026;-67
2021/06/20 05:05:10;;;;;;;7.88;1.60;;;;;;;;;;5032861;28;20014;-67
2021/06/20 05:07:37;;;;;;;9.32;1.83;;;;;;;;;;5033966;28;20052;-67
2021/06/20 05:10:05;;;;;;;10.73;1.77;;;;;;;;;;5034704;28;20026;-67
2021/06/20 05:12:32;;;;;;;9.43;1.52;;;;;;;;;;5034048;28;20056;-67
2021/06/20 05:15:00;;;;;;;6.97;1.35;;;;;;;;;;5033100;28;20017;-68
2021/06/20 05:17:27;;;;;;;6.63;1.08;;;;;;;;;;5016187;28;20064;-68
2021/06/20 05:19:54;;;;;;;7.00;1.42;;;;;;;;;;5033186;28;20025;-68
2021/06/20 05:22:22;;;;;;;8.52;1.50;;;;;;;;;;5032771;28;20118;-69
2021/06/20 05:24:49;;;;;;;6.95;1.38;;;;;;;;;;5031030;28;20422;-68
2021/06/20 05:27:16;;;;;;;7.85;1.58;;;;;;;;;;5033324;28;20021;-67
2021/06/20 05:29:43;;;;;;;12.02;3.42;;;;;;;;;;5033359;28;20489;-68
2021/06/20 05:32:11;;;;;;;6.70;1.42;;;;;;;;;;5013097;28;20494;-70
2021/06/20 05:34:41;;;;;;;9.18;1.30;;;;;;;;;;5031632;28;20010;-68
2021/06/20 05:37:08;;;;;;;8.75;1.60;;;;;;;;;;5032247;28;20357;-69
2021/06/20 05:39:35;;;;;;;7.25;1.17;;;;;;;;;;5033040;28;20026;-69
2021/06/20 05:42:02;;;;;;;8.57;1.63;;;;;;;;;;5033833;28;20475;-69
2021/06/20 05:44:29;;;;;;;7.57;1.35;;;;;;;;;;5033644;28;20026;-69
2021/06/20 05:46:57;;;;;;;5.95;1.30;;;;;;;;;;5033893;28;20017;-69
2021/06/20 05:49:24;;;;;;;9.68;1.77;;;;;;;;;;5033399;28;20022;-69
2021/06/20 05:51:51;;;;;;;7.07;1.10;;;;;;;;;;5033977;28;20024;-68
2021/06/20 05:54:18;;;;;;;13.05;1.88;;;;;;;;;;5007395;28;20033;-68
2021/06/20 05:56:45;;;;;;;7.63;1.20;;;;;;;;;;5014696;28;20430;-68
2021/06/20 05:59:12;;;;;;;6.88;1.45;;;;;;;;;;5018912;28;20013;-68
2021/06/20 06:01:39;;;;;;;8.95;1.40;;;;;;;;;;5032747;28;20022;-68
2021/06/20 06:04:06;;;;;;;9.65;1.10;;;;;;;;;;5032116;28;20029;-67
2021/06/20 06:06:34;;;;;;;8.60;1.85;;;;;;;;;;5007796;28;20080;-67
2021/06/20 06:09:01;;;;;;;7.32;1.50;;;;;;;;;;5032111;28;20014;-67
2021/06/20 06:11:29;;;;;;;13.45;2.42;;;;;;;;;;5032593;28;20036;-67
2021/06/20 06:13:56;;;;;;;13.07;2.13;;;;;;;;;;5033244;28;20375;-67
2021/06/20 06:16:23;;;;;;;11.05;1.90;;;;;;;;;;5033590;28;20021;-67
2021/06/20 06:18:50;;;;;;;9.68;1.50;;;;;;;;;;5030439;28;20028;-67
2021/06/20 06:21:17;;;;;;;11.70;1.80;;;;;;;;;;5033296;28;20471;-68
2021/06/20 06:23:45;;;;;;;10.20;2.05;;;;;;;;;;5032933;28;20087;-68
2021/06/20 06:26:12;;;;;;;9.38;2.17;;;;;;;;;;5031424;28;20497;-68
2021/06/20 06:28:39;;;;;;;9.27;1.67;;;;;;;;;;5014163;28;20099;-68
2021/06/20 06:31:07;;;;;;;11.95;1.70;;;;;;;;;;5032848;28;20064;-68
2021/06/20 06:33:34;;;;;;;9.40;1.50;;;;;;;;;;5013433;28;20068;-68
2021/06/20 06:38:36;;;;;;;7.57;1.50;;;;;;;;;;5024136;22;20045;-85
2021/06/20 06:41:03;;;;;;;8.60;1.85;;;;;;;;;;5008738;28;20392;-86
2021/06/20 06:43:30;;;;;;;7.63;1.55;;;;;;;;;;5025771;28;20123;-86
2021/06/20 06:45:59;;;;;;;12.82;2.45;;;;;;;;;;5032515;28;20060;-85
2021/06/20 06:48:27;;;;;;;9.30;1.60;;;;;;;;;;5030630;28;20471;-90
2021/06/20 06:50:54;;;;;;;11.80;2.17;;;;;;;;;;5032587;28;20044;-86
2021/06/20 06:53:21;;;;;;;6.28;1.75;;;;;;;;;;5025304;28;20033;-86
2021/06/20 06:55:48;;;;;;;10.10;2.00;;;;;;;;;;5033053;28;20024;-85
2021/06/20 06:58:15;;;;;;;8.30;2.10;;;;;;;;;;5032508;28;20033;-86
2021/06/20 07:00:43;;;;;;;11.10;1.95;;;;;;;;;;5033028;28;20057;-85
2021/06/20 07:03:10;;;;;;;10.15;1.40;;;;;;;;;;5030924;28;20033;-85
2021/06/20 07:05:37;;;;;;;14.75;1.80;;;;;;;;;;5031489;28;20032;-85
2021/06/20 07:08:05;;;;;;;11.98;2.13;;;;;;;;;;5025495;28;20024;-85
2021/06/20 07:10:32;;;;;;;12.63;1.67;;;;;;;;;;5030601;28;20087;-85
2021/06/20 07:12:59;;;;;;;12.98;2.20;;;;;;;;;;5031058;28;20028;-84
2021/06/20 07:15:26;;;;;;;14.20;3.42;;;;;;;;;;5028769;28;20025;-84
2021/06/20 07:17:55;;;;;;;16.10;2.75;;;;;;;;;;5031221;28;20029;-85
2021/06/20 07:20:22;;;;;;;12.57;2.88;;;;;;;;;;5030085;28;20108;-84
2021/06/20 07:22:50;;;;;;;11.60;2.40;;;;;;;;;;5032878;28;20496;-84
2021/06/20 07:25:19;;;;;;;12.07;2.50;;;;;;;;;;5031751;28;20061;-84
2021/06/20 07:27:47;;;;;;;13.65;3.67;;;;;;;;;;5030635;28;20541;-84
2021/06/20 07:30:15;;;;;;;11.23;3.08;;;;;;;;;;5031943;28;20025;-84
2021/06/20 07:32:42;;;;;;;14.05;3.25;;;;;;;;;;5023619;28;20041;-83
2021/06/20 07:35:10;;;;;;;14.48;3.70;;;;;;;;;;5031967;28;20427;-84
2021/06/20 07:37:38;;;;;;;14.98;3.28;;;;;;;;;;5031721;28;20049;-84
2021/06/20 07:40:07;;;;;;;12.48;2.97;;;;;;;;;;5031969;28;20021;-84
2021/06/20 07:42:34;;;;;;;11.63;2.60;;;;;;;;;;5031770;28;20025;-84
2021/06/20 07:45:01;;;;;;;12.52;2.28;;;;;;;;;;5031485;28;20026;-83
2021/06/20 07:47:28;;;;;;;18.55;3.55;;;;;;;;;;5030692;28;20025;-83
2021/06/20 07:49:55;;;;;;;13.05;3.00;;;;;;;;;;5029920;28;20025;-84
2021/06/20 07:52:22;;;;;;;14.18;3.63;;;;;;;;;;5029602;28;20492;-84
2021/06/20 07:54:50;;;;;;;21.50;3.88;;;;;;;;;;5032479;28;20096;-83
2021/06/20 07:57:21;;;;;;;16.75;6.90;;;;;;;;;;5016804;28;20021;-82
2021/06/20 07:59:49;;;;;;;18.60;5.78;;;;;;;;;;5032190;28;20100;-83
2021/06/20 08:02:17;;;;;;;13.63;3.40;;;;;;;;;;5015195;28;20033;-83
2021/06/20 08:04:44;;;;;;;18.65;3.60;;;;;;;;;;5036127;28;20051;-83
2021/06/20 08:35:49;;;;;;;10.07;4.50;;;;;;;;;;5045225;28;20130;-82
2021/06/20 08:38:16;;;;;;;10.52;3.08;;;;;;;;;;5073715;28;20032;-85
2021/06/20 08:40:44;;;;;;;9.45;2.90;;;;;;;;;;5056679;28;20499;-83
2021/06/20 08:43:11;;;;;;;10.43;1.98;;;;;;;;;;5070362;28;20028;-83
2021/06/20 08:45:39;;;;;;;11.32;2.80;;;;;;;;;;5055931;28;20043;-83
2021/06/20 08:48:07;;;;;;;8.55;2.65;;;;;;;;;;5067572;28;20031;-84
2021/06/20 08:50:34;;;;;;;12.40;2.90;;;;;;;;;;5056141;28;20025;-83
2021/06/20 08:53:01;;;;;;;10.35;2.30;;;;;;;;;;5074311;28;20398;-84
2021/06/20 08:55:28;;;;;;;11.32;2.33;;;;;;;;;;5074570;28;20025;-83
2021/06/20 08:58:00;;;;;;;15.65;3.13;;;;;;;;;;5074049;28;20032;-82
2021/06/20 09:00:27;;;;;;;13.10;2.70;;;;;;;;;;5068478;28;20033;-82
2021/06/20 09:02:59;;;;;;;16.13;3.38;;;;;;;;;;5056191;28;20024;-83
2021/06/20 09:05:26;;;;;;;15.27;2.13;;;;;;;;;;5072160;28;20127;-83
2021/06/20 09:07:53;;;;;;;11.95;2.63;;;;;;;;;;5073710;28;20037;-83
2021/06/20 09:10:22;;;;;;;13.82;3.05;;;;;;;;;;5071613;28;20115;-83
2021/06/20 09:12:59;;;;;;;8.77;3.30;;;;;;;;;;5073981;28;20372;-83
2021/06/20 09:15:28;;;;;;;14.93;8.20;;;;;;;;;;5071538;28;20052;-84
2021/06/20 09:17:57;;;;;;;15.50;6.50;;;;;;;;;;5067180;28;20492;-84
2021/06/20 09:20:34;;;;;;;16.42;6.50;;;;;;;;;;5074208;28;20035;-84
2021/06/20 09:23:03;;;;;;;10.98;4.75;;;;;;;;;;5073429;28;20041;-83
2021/06/20 09:25:31;;;;;;;10.82;4.07;;;;;;;;;;5072963;28;20025;-83
2021/06/20 09:28:00;;;;;;;13.73;5.05;;;;;;;;;;5070277;28;20033;-83
2021/06/20 09:30:29;;;;;;;14.55;4.07;;;;;;;;;;5072422;28;20036;-83
2021/06/20 09:32:57;;;;;;;10.77;3.85;;;;;;;;;;5055293;28;20097;-84
2021/06/20 09:35:25;;;;;;;13.52;3.70;;;;;;;;;;5071069;28;20059;-83
2021/06/20 09:37:53;;;;;;;17.02;3.63;;;;;;;;;;5073176;28;20033;-84
2021/06/20 09:40:20;;;;;;;9.93;3.58;;;;;;;;;;5073069;28;20043;-83
2021/06/20 09:42:49;;;;;;;14.55;2.60;;;;;;;;;;5073343;28;20373;-84
2021/06/20 09:45:26;;;;;;;10.57;3.40;;;;;;;;;;5073315;28;20510;-83
2021/06/20 09:47:53;;;;;;;7.20;2.28;;;;;;;;;;5072440;28;20441;-84
2021/06/20 09:50:33;;;;;;;14.43;3.42;;;;;;;;;;5064275;28;20091;-83
2021/06/20 09:53:01;;;;;;;11.95;3.30;;;;;;;;;;5054122;28;20033;-83
2021/06/20 09:55:28;;;;;;;12.82;3.05;;;;;;;;;;5053835;28;20079;-83
2021/06/20 09:57:59;;;;;;;14.68;2.85;;;;;;;;;;5068350;28;20070;-83
2021/06/20 10:00:26;;;;;;;10.45;4.05;;;;;;;;;;5070477;28;20371;-83
2021/06/20 10:02:53;;;;;;;11.18;3.45;;;;;;;;;;5073351;28;20028;-83
2021/06/20 10:05:21;;;;;;;11.07;3.55;;;;;;;;;;5072543;28;20033;-82
2021/06/20 10:07:48;;;;;;;12.25;3.22;;;;;;;;;;5059607;28;20033;-83
2021/06/20 10:10:15;;;;;;;7.13;2.60;;;;;;;;;;5068854;28;20040;-83
2021/06/20 10:12:42;;;;;;;12.13;2.70;;;;;;;;;;5072741;28;20044;-83
2021/06/20 10:15:13;;;;;;;10.10;2.92;;;;;;;;;;5054472;28;20549;-83
2021/06/20 10:17:44;;;;;;;9.85;2.25;;;;;;;;;;5073072;28;20054;-82
2021/06/20 10:20:13;;;;;;;7.18;2.42;;;;;;;;;;5072632;28;20037;-83
2021/06/20 10:22:47;;;;;;;12.00;3.78;;;;;;;;;;5072401;28;20039;-83
2021/06/20 10:25:40;;;;;;;6.80;2.05;;;;;;;;;;5071719;28;20044;-82
2021/06/20 10:28:11;;;;;;;14.40;2.42;;;;;;;;;;5073374;28;20116;-83
2021/06/20 10:30:38;;;;;;;13.70;2.28;;;;;;;;;;5072495;28;20033;-82
2021/06/20 11:33:53;;;;;;;13.95;1.85;;;;;;;;;;5087821;22;20058;-67
2021/06/20 11:36:20;;;;;;;7.95;1.98;;;;;;;;;;5073140;28;20036;-67
2021/06/20 11:38:47;;;;;;;14.80;2.50;;;;;;;;;;5091937;28;20063;-67
2021/06/20 11:41:16;;;;;;;7.72;1.55;;;;;;;;;;5088349;28;20500;-69
2021/06/20 11:43:57;;;;;;;13.75;3.08;;;;;;;;;;5090602;28;20036;-67
2021/06/20 11:46:24;;;;;;;10.30;1.40;;;;;;;;;;5071152;28;20033;-67
2021/06/20 11:48:56;;;;;;;6.55;1.58;;;;;;;;;;5068377;28;20071;-67
2021/06/20 11:51:33;;;;;;;9.43;1.60;;;;;;;;;;5068570;28;20082;-67
2021/06/20 11:54:10;;;;;;;8.82;1.73;;;;;;;;;;5067456;28;20091;-67
2021/06/20 11:56:39;;;;;;;11.20;2.60;;;;;;;;;;5070826;28;20075;-68
2021/06/20 11:59:06;;;;;;;7.30;1.35;;;;;;;;;;5070441;28;20025;-67
2021/06/20 12:01:42;;;;;;;10.90;1.80;;;;;;;;;;5068505;28;20113;-67
2021/06/20 12:04:13;;;;;;;12.27;1.17;;;;;;;;;;5068826;28;20048;-67
2021/06/20 12:06:40;;;;;;;12.88;1.70;;;;;;;;;;5070813;28;20028;-66
2021/06/20 12:09:09;;;;;;;6.72;1.20;;;;;;;;;;5069380;28;20104;-67
2021/06/20 12:11:36;;;;;;;7.80;1.33;;;;;;;;;;5066199;28;20144;-67
2021/06/20 12:14:04;;;;;;;9.52;1.55;;;;;;;;;;5068870;28;20036;-67
2021/06/20 12:16:32;;;;;;;9.20;1.42;;;;;;;;;;5070281;28;20421;-67
2021/06/20 12:18:59;;;;;;;8.90;1.80;;;;;;;;;;5068558;28;20519;-67
2021/06/20 12:21:28;;;;;;;7.40;2.08;;;;;;;;;;5068927;28;20453;-68
2021/06/20 12:23:59;;;;;;;7.43;1.67;;;;;;;;;;5069801;28;20448;-68
2021/06/20 12:26:30;;;;;;;10.57;1.50;;;;;;;;;;5069294;28;20037;-68
2021/06/20 12:28:58;;;;;;;9.43;1.67;;;;;;;;;;5068930;28;20370;-68
2021/06/20 12:31:26;;;;;;;8.13;1.63;;;;;;;;;;5071982;28;20041;-68
2021/06/20 12:34:07;;;;;;;7.82;1.38;;;;;;;;;;5068049;28;20389;-68
2021/06/20 12:36:34;;;;;;;8.13;1.70;;;;;;;;;;5069856;28;20028;-67
2021/06/20 12:39:02;;;;;;;8.02;2.22;;;;;;;;;;5069112;28;20044;-68
2021/06/20 12:41:29;;;;;;;9.38;2.15;;;;;;;;;;5068687;28;20449;-68
2021/06/20 12:43:59;;;;;;;10.05;2.35;;;;;;;;;;5068419;28;20596;-68
2021/06/20 12:46:34;;;;;;;10.55;2.20;;;;;;;;;;5069115;28;20032;-68
2021/06/20 12:49:12;;;;;;;7.85;2.75;;;;;;;;;;5062574;28;20572;-68
2021/06/20 12:51:49;;;;;;;7.68;2.00;;;;;;;;;;5073723;28;20036;-68
2021/06/20 12:54:16;;;;;;;10.40;1.95;;;;;;;;;;5073338;28;20036;-68
2021/06/20 12:56:44;;;;;;;14.60;1.73;;;;;;;;;;5073523;28;20041;-68
2021/06/20 12:59:11;;;;;;;11.65;1.73;;;;;;;;;;5072756;28;20055;-68
2021/06/20 13:01:49;;;;;;;6.75;1.35;;;;;;;;;;5072201;28;20044;-68
2021/06/20 13:04:17;;;;;;;6.63;1.42;;;;;;;;;;5072595;28;20489;-68
2021/06/20 13:06:45;;;;;;;7.22;1.05;;;;;;;;;;5073126;28;20067;-68
2021/06/20 13:09:12;;;;;;;8.35;1.90;;;;;;;;;;5054253;28;20039;-68
2021/06/20 13:11:40;;;;;;;11.38;1.30;;;;;;;;;;5070591;28;20063;-68
2021/06/20 13:14:17;;;;;;;8.80;1.40;;;;;;;;;;5073711;28;20072;-68
2021/06/20 13:16:45;;;;;;;6.97;1.35;;;;;;;;;;5073215;28;20039;-68
2021/06/20 13:19:14;;;;;;;5.93;1.92;;;;;;;;;;5070140;28;20036;-68
2021/06/20 13:21:41;;;;;;;9.15;1.65;;;;;;;;;;5073292;28;20452;-68
2021/06/20 13:24:08;;;;;;;4.05;1.15;;;;;;;;;;5055044;28;20037;-68
2021/06/20 13:26:36;;;;;;;8.48;2.45;;;;;;;;;;5074289;28;20075;-68
2021/06/20 13:29:03;;;;;;;5.10;1.80;;;;;;;;;;5072845;28;20064;-68
2021/06/20 13:31:30;;;;;;;7.38;1.20;;;;;;;;;;5073346;28;20037;-68
2021/06/20 13:33:58;;;;;;;5.03;0.80;;;;;;;;;;5071896;28;20063;-68
2021/06/20 13:36:26;;;;;;;5.38;0.95;;;;;;;;;;5074281;28;20078;-68
2021/06/20 13:38:53;;;;;;;4.75;1.10;;;;;;;;;;5072766;28;20021;-68
2021/06/20 13:41:21;;;;;;;7.93;1.10;;;;;;;;;;5075846;28;20056;-69
2021/06/20 13:43:48;;;;;;;7.88;0.95;;;;;;;;;;5072298;28;20032;-68
2021/06/20 13:46:17;;;;;;;5.05;0.93;;;;;;;;;;5075025;28;20150;-68
2021/06/20 13:48:45;;;;;;;5.65;0.80;;;;;;;;;;5074030;28;20033;-68
2021/06/20 13:51:13;;;;;;;7.00;0.88;;;;;;;;;;5071093;28;20041;-68
2021/06/20 13:53:40;;;;;;;5.95;1.42;;;;;;;;;;5054059;28;20048;-68
2021/06/20 13:56:07;;;;;;;3.05;0.80;;;;;;;;;;5072633;28;20112;-69
2021/06/20 13:58:34;;;;;;;8.25;1.45;;;;;;;;;;5072169;28;20029;-68
2021/06/20 14:01:02;;;;;;;8.63;1.15;;;;;;;;;;5072280;28;20023;-68
2021/06/20 14:03:29;;;;;;;5.00;0.73;;;;;;;;;;5071421;28;20025;-68
2021/06/20 14:05:57;;;;;;;8.02;1.45;;;;;;;;;;5071991;28;20031;-68
2021/06/20 14:08:24;;;;;;;6.20;0.98;;;;;;;;;;5071974;28;20028;-68
2021/06/20 14:10:52;;;;;;;6.95;0.88;;;;;;;;;;5072999;28;20553;-68
2021/06/20 14:13:19;;;;;;;5.25;0.73;;;;;;;;;;5071349;28;20119;-68
2021/06/20 14:15:46;;;;;;;2.92;1.13;;;;;;;;;;5071782;28;20446;-68
2021/06/20 14:18:13;;;;;;;5.50;1.08;;;;;;;;;;5072429;28;20058;-68
2021/06/20 14:20:40;;;;;;;4.63;0.93;;;;;;;;;;5070982;28;20044;-68
2021/06/20 14:23:07;;;;;;;5.40;1.42;;;;;;;;;;5071542;28;20029;-68
2021/06/20 14:25:35;;;;;;;4.32;0.93;;;;;;;;;;5072238;28;20500;-68
2021/06/20 14:28:02;;;;;;;5.00;0.50;;;;;;;;;;5071950;28;20484;-68
2021/06/20 14:30:29;;;;;;;3.67;0.68;;;;;;;;;;5072192;28;20400;-68
2021/06/20 14:32:56;;;;;;;6.07;0.70;;;;;;;;;;5068732;28;20048;-67
2021/06/20 14:35:23;;;;;;;2.95;0.50;;;;;;;;;;5070663;28;20043;-68
2021/06/20 14:37:50;;;;;;;2.83;0.40;;;;;;;;;;5071896;28;20404;-68
2021/06/20 14:40:17;;;;;;;2.20;0.65;;;;;;;;;;5071536;28;20037;-68
2021/06/20 14:42:45;;;;;;;2.83;0.82;;;;;;;;;;5070499;28;20048;-67
2021/06/20 14:45:12;;;;;;;3.15;0.70;;;;;;;;;;5071418;28;20060;-68
2021/06/20 14:47:39;;;;;;;5.68;0.85;;;;;;;;;;5070852;28;20029;-68
2021/06/20 14:50:07;;;;;;;3.92;0.60;;;;;;;;;;5072183;28;20029;-68
2021/06/20 14:52:34;;;;;;;5.40;0.60;;;;;;;;;;5071163;28;20036;-69
2021/06/20 14:55:01;;;;;;;3.08;0.50;;;;;;;;;;5071291;28;20032;-68
2021/06/20 14:57:28;;;;;;;5.10;0.68;;;;;;;;;;5071111;28;20472;-68
2021/06/20 14:59:55;;;;;;;2.38;0.45;;;;;;;;;;5070463;28;20043;-68
2021/06/20 15:02:22;;;;;;;2.92;0.57;;;;;;;;;;5071472;28;20040;-68
2021/06/20 15:04:49;;;;;;;5.07;0.80;;;;;;;;;;5072476;28;20054;-67
2021/06/20 15:07:16;;;;;;;5.35;0.77;;;;;;;;;;5071151;28;20029;-68
2021/06/20 15:09:44;;;;;;;8.05;1.73;;;;;;;;;;5071899;28;20040;-68
2021/06/20 15:12:11;;;;;;;5.60;1.60;;;;;;;;;;5069425;28;20040;-68
2021/06/20 15:14:38;;;;;;;5.97;1.65;;;;;;;;;;5070330;28;20048;-68
2021/06/20 15:17:05;;;;;;;6.13;1.70;;;;;;;;;;5053508;28;20032;-68
2021/06/20 15:19:32;;;;;;;5.57;1.17;;;;;;;;;;5069479;28;20045;-68
2021/06/20 15:22:00;;;;;;;4.00;1.67;;;;;;;;;;5070157;28;20044;-68
2021/06/20 15:24:27;;;;;;;1.75;0.88;;;;;;;;;;5070516;28;21712;-68
2021/06/20 15:26:54;;;;;;;6.80;2.05;;;;;;;;;;5060726;28;20473;-68
2021/06/20 15:29:21;;;;;;;5.88;1.80;;;;;;;;;;5070166;28;20032;-68
2021/06/20 15:31:49;;;;;;;3.13;1.02;;;;;;;;;;5053246;28;20044;-68
2021/06/20 15:34:16;;;;;;;5.95;0.90;;;;;;;;;;5051993;28;20032;-68
2021/06/20 15:36:43;;;;;;;4.47;1.23;;;;;;;;;;5070711;28;20102;-68
2021/06/20 15:39:10;;;;;;;2.97;0.60;;;;;;;;;;5071762;28;20041;-68
2021/06/20 15:41:37;;;;;;;3.78;0.70;;;;;;;;;;5071752;28;20516;-68
2021/06/20 15:44:04;;;;;;;5.38;0.50;;;;;;;;;;5071780;28;20047;-69
2021/06/20 15:46:35;;;;;;;7.75;1.13;;;;;;;;;;5070635;28;20040;-68
2021/06/20 15:49:02;;;;;;;4.68;0.65;;;;;;;;;;5071260;28;20047;-69
2021/06/20 15:51:30;;;;;;;5.85;0.80;;;;;;;;;;5071876;28;20397;-68
2021/06/20 15:53:57;;;;;;;3.30;0.80;;;;;;;;;;5070653;28;20106;-68
2021/06/20 15:56:26;;;;;;;4.40;0.50;;;;;;;;;;5053799;28;20048;-68
2021/06/20 15:58:54;;;;;;;5.53;1.70;;;;;;;;;;5068242;28;20029;-68
2021/06/20 16:01:21;;;;;;;2.50;0.60;;;;;;;;;;5070577;28;20363;-68
2021/06/20 16:03:48;;;;;;;4.72;0.60;;;;;;;;;;5069948;28;21920;-68
2021/06/20 16:06:18;;;;;;;6.13;0.70;;;;;;;;;;5070536;28;20028;-68
2021/06/20 16:08:45;;;;;;;11.10;1.60;;;;;;;;;;5070038;28;20457;-68
2021/06/20 16:11:13;;;;;;;4.47;0.50;;;;;;;;;;5071493;28;20037;-69
2021/06/20 16:13:40;;;;;;;5.00;0.82;;;;;;;;;;5071896;28;20098;-68
2021/06/20 16:16:07;;;;;;;6.03;0.40;;;;;;;;;;5071533;28;20063;-68